sensor_id;sensor_type;location;lat;lon;timestamp;pressure;altitude;pressure_sealevel;temperature;humidity
51081;BME280;37130;55.670;37.596;2023-10-08T00:01:21;96188.97;;;6.34;100.00
51081;BME280;37130;55.670;37.596;2023-10-08T00:03:49;96202.13;;;6.44;100.00
51081;BME280;37130;55.670;37.596;2023-10-08T00:06:21;96209.34;;;6.42;100.00
51081;BME280;37130;55.670;37.596;2023-10-08T00:08:50;96205.19;;;6.40;100.00
51081;BME280;37130;55.670;37.596;2023-10-08T00:11:18;96199.22;;;6.38;100.00
51081;BME280;37130;55.670;37.596;2023-10-08T00:13:46;96205.19;;;6.40;100.00
51081;BME280;37130;55.670;37.596;2023-10-08T00:16:16;96195.88;;;6.35;100.00
51081;BME280;37130;55.670;37.596;2023-10-08T00:18:46;96211.25;;;6.40;100.00
51081;BME280;37130;55.670;37.596;2023-10-08T00:21:21;96199.34;;;6.36;100.00
51081;BME280;37130;55.670;37.596;2023-10-08T00:23:56;96212.19;;;6.29;100.00
51081;BME280;37130;55.670;37.596;2023-10-08T00:26:29;96213.13;;;6.28;100.00
51081;BME280;37130;55.670;37.596;2023-10-08T00:29:02;96218.25;;;6.30;100.00
51081;BME280;37130;55.670;37.596;2023-10-08T00:31:45;96219.47;;;6.26;100.00
51081;BME280;37130;55.670;37.596;2023-10-08T00:34:13;96223.91;;;6.25;100.00
51081;BME280;37130;55.670;37.596;2023-10-08T00:36:43;96211.03;;;6.22;100.00
51081;BME280;37130;55.670;37.596;2023-10-08T00:39:12;96174.50;;;5.77;100.00
51081;BME280;37130;55.670;37.596;2023-10-08T00:41:51;96215.53;;;6.10;100.00
51081;BME280;37130;55.670;37.596;2023-10-08T00:44:28;96221.56;;;6.01;100.00
51081;BME280;37130;55.670;37.596;2023-10-08T00:47:01;96223.25;;;5.91;100.00
51081;BME280;37130;55.670;37.596;2023-10-08T00:49:29;96192.81;;;5.67;100.00
51081;BME280;37130;55.670;37.596;2023-10-08T00:52:00;96221.13;;;5.85;100.00
51081;BME280;37130;55.670;37.596;2023-10-08T00:54:28;96216.78;;;5.74;100.00
51081;BME280;37130;55.670;37.596;2023-10-08T00:56:55;96193.25;;;5.52;100.00
51081;BME280;37130;55.670;37.596;2023-10-08T00:59:26;96210.53;;;5.54;100.00
51081;BME280;37130;55.670;37.596;2023-10-08T01:01:57;96218.16;;;5.57;100.00
51081;BME280;37130;55.670;37.596;2023-10-08T01:04:33;96197.56;;;5.41;100.00
51081;BME280;37130;55.670;37.596;2023-10-08T01:07:02;96206.47;;;5.50;100.00
51081;BME280;37130;55.670;37.596;2023-10-08T01:09:40;96212.44;;;5.52;100.00
51081;BME280;37130;55.670;37.596;2023-10-08T01:12:13;96200.84;;;5.55;100.00
51081;BME280;37130;55.670;37.596;2023-10-08T01:14:55;96211.28;;;5.45;100.00
51081;BME280;37130;55.670;37.596;2023-10-08T01:17:24;96219.50;;;5.52;100.00
51081;BME280;37130;55.670;37.596;2023-10-08T01:19:53;96224.00;;;5.61;100.00
51081;BME280;37130;55.670;37.596;2023-10-08T01:22:35;96220.03;;;5.66;100.00
51081;BME280;37130;55.670;37.596;2023-10-08T01:25:07;96222.50;;;5.68;100.00
51081;BME280;37130;55.670;37.596;2023-10-08T01:27:38;96195.34;;;5.58;100.00
51081;BME280;37130;55.670;37.596;2023-10-08T01:30:06;96218.03;;;5.59;100.00
51081;BME280;37130;55.670;37.596;2023-10-08T01:32:45;96215.88;;;5.53;100.00
51081;BME280;37130;55.670;37.596;2023-10-08T01:35:12;96219.19;;;5.34;100.00
51081;BME280;37130;55.670;37.596;2023-10-08T01:37:50;96217.22;;;5.15;100.00
51081;BME280;37130;55.670;37.596;2023-10-08T01:40:18;96197.44;;;5.11;100.00
51081;BME280;37130;55.670;37.596;2023-10-08T01:42:46;96217.03;;;4.95;100.00
51081;BME280;37130;55.670;37.596;2023-10-08T01:45:13;96207.00;;;4.89;100.00
51081;BME280;37130;55.670;37.596;2023-10-08T01:47:45;96202.97;;;4.85;100.00
51081;BME280;37130;55.670;37.596;2023-10-08T01:50:17;96169.88;;;4.73;100.00
51081;BME280;37130;55.670;37.596;2023-10-08T01:52:49;96209.25;;;5.16;100.00
51081;BME280;37130;55.670;37.596;2023-10-08T01:55:18;96220.53;;;5.28;100.00
51081;BME280;37130;55.670;37.596;2023-10-08T01:57:47;96163.59;;;5.08;100.00
51081;BME280;37130;55.670;37.596;2023-10-08T02:00:15;96127.53;;;4.89;100.00
51081;BME280;37130;55.670;37.596;2023-10-08T02:02:50;96117.63;;;4.92;100.00
51081;BME280;37130;55.670;37.596;2023-10-08T02:05:18;96199.31;;;5.52;100.00
51081;BME280;37130;55.670;37.596;2023-10-08T02:07:48;96218.66;;;5.51;100.00
51081;BME280;37130;55.670;37.596;2023-10-08T02:10:16;96209.25;;;5.48;100.00
51081;BME280;37130;55.670;37.596;2023-10-08T02:12:44;96156.31;;;5.11;100.00
51081;BME280;37130;55.670;37.596;2023-10-08T02:15:12;96212.50;;;5.41;100.00
51081;BME280;37130;55.670;37.596;2023-10-08T02:17:40;96207.50;;;5.38;100.00
51081;BME280;37130;55.670;37.596;2023-10-08T02:20:08;96202.38;;;5.36;100.00
51081;BME280;37130;55.670;37.596;2023-10-08T02:22:56;96207.16;;;5.31;100.00
51081;BME280;37130;55.670;37.596;2023-10-08T02:25:23;96204.41;;;5.33;100.00
51081;BME280;37130;55.670;37.596;2023-10-08T02:27:51;96206.66;;;5.37;100.00
51081;BME280;37130;55.670;37.596;2023-10-08T02:30:19;96219.06;;;5.35;100.00
51081;BME280;37130;55.670;37.596;2023-10-08T02:32:47;96202.97;;;5.28;100.00
51081;BME280;37130;55.670;37.596;2023-10-08T02:35:16;96206.00;;;5.24;100.00
51081;BME280;37130;55.670;37.596;2023-10-08T02:37:44;96188.31;;;5.26;100.00
51081;BME280;37130;55.670;37.596;2023-10-08T02:40:12;96212.13;;;5.34;100.00
51081;BME280;37130;55.670;37.596;2023-10-08T02:42:44;96184.56;;;5.19;100.00
51081;BME280;37130;55.670;37.596;2023-10-08T02:45:12;96162.97;;;5.15;100.00
51081;BME280;37130;55.670;37.596;2023-10-08T02:47:41;96217.38;;;5.45;100.00
51081;BME280;37130;55.670;37.596;2023-10-08T02:50:12;96228.81;;;5.44;100.00
51081;BME280;37130;55.670;37.596;2023-10-08T02:52:43;96172.41;;;5.07;100.00
51081;BME280;37130;55.670;37.596;2023-10-08T02:55:14;96212.03;;;5.36;100.00
51081;BME280;37130;55.670;37.596;2023-10-08T02:58:05;96231.28;;;5.25;100.00
51081;BME280;37130;55.670;37.596;2023-10-08T03:00:33;96224.00;;;5.17;100.00
51081;BME280;37130;55.670;37.596;2023-10-08T03:03:01;96214.97;;;5.10;100.00
51081;BME280;37130;55.670;37.596;2023-10-08T03:05:37;96120.38;;;4.36;100.00
51081;BME280;37130;55.670;37.596;2023-10-08T03:08:05;96211.44;;;4.89;100.00
51081;BME280;37130;55.670;37.596;2023-10-08T03:10:38;96215.97;;;4.87;100.00
51081;BME280;37130;55.670;37.596;2023-10-08T03:13:09;96221.44;;;4.83;100.00
51081;BME280;37130;55.670;37.596;2023-10-08T03:15:42;96205.38;;;4.77;100.00
51081;BME280;37130;55.670;37.596;2023-10-08T03:18:25;96149.28;;;4.34;100.00
51081;BME280;37130;55.670;37.596;2023-10-08T03:20:53;96208.72;;;4.68;100.00
51081;BME280;37130;55.670;37.596;2023-10-08T03:23:21;96109.81;;;4.04;100.00
51081;BME280;37130;55.670;37.596;2023-10-08T03:26:02;96218.13;;;4.70;100.00
51081;BME280;37130;55.670;37.596;2023-10-08T03:28:38;96215.63;;;4.69;100.00
51081;BME280;37130;55.670;37.596;2023-10-08T03:31:09;96211.22;;;4.69;100.00
51081;BME280;37130;55.670;37.596;2023-10-08T03:33:46;96213.13;;;4.67;100.00
51081;BME280;37130;55.670;37.596;2023-10-08T03:36:19;96232.06;;;4.71;100.00
51081;BME280;37130;55.670;37.596;2023-10-08T03:39:01;96218.72;;;4.74;100.00
51081;BME280;37130;55.670;37.596;2023-10-08T03:41:39;96218.72;;;4.74;100.00
51081;BME280;37130;55.670;37.596;2023-10-08T03:44:18;96217.06;;;4.73;100.00
51081;BME280;37130;55.670;37.596;2023-10-08T03:46:48;96214.69;;;4.70;100.00
51081;BME280;37130;55.670;37.596;2023-10-08T03:49:15;96221.94;;;4.66;100.00
51081;BME280;37130;55.670;37.596;2023-10-08T03:51:52;96215.03;;;4.65;100.00
51081;BME280;37130;55.670;37.596;2023-10-08T03:54:21;96213.84;;;4.69;100.00
51081;BME280;37130;55.670;37.596;2023-10-08T03:57:02;96226.47;;;4.75;100.00
51081;BME280;37130;55.670;37.596;2023-10-08T03:59:31;96223.84;;;4.75;100.00
51081;BME280;37130;55.670;37.596;2023-10-08T04:02:02;96211.56;;;4.76;100.00
51081;BME280;37130;55.670;37.596;2023-10-08T04:04:43;96212.06;;;4.70;100.00
51081;BME280;37130;55.670;37.596;2023-10-08T04:07:25;96216.69;;;4.66;100.00
51081;BME280;37130;55.670;37.596;2023-10-08T04:09:58;96223.25;;;4.72;100.00
51081;BME280;37130;55.670;37.596;2023-10-08T04:12:38;96223.94;;;4.74;100.00
51081;BME280;37130;55.670;37.596;2023-10-08T04:15:11;96152.16;;;4.43;100.00
51081;BME280;37130;55.670;37.596;2023-10-08T04:17:44;96203.34;;;4.80;100.00
51081;BME280;37130;55.670;37.596;2023-10-08T04:20:14;96203.81;;;4.86;100.00
51081;BME280;37130;55.670;37.596;2023-10-08T04:23:03;96208.91;;;4.87;100.00
51081;BME280;37130;55.670;37.596;2023-10-08T04:25:32;96211.91;;;4.94;100.00
51081;BME280;37130;55.670;37.596;2023-10-08T04:28:01;96153.78;;;4.66;100.00
51081;BME280;37130;55.670;37.596;2023-10-08T04:30:35;96203.88;;;5.07;100.00
51081;BME280;37130;55.670;37.596;2023-10-08T04:33:04;96219.13;;;5.13;100.00
51081;BME280;37130;55.670;37.596;2023-10-08T04:35:40;96213.41;;;5.19;100.00
51081;BME280;37130;55.670;37.596;2023-10-08T04:38:24;96180.66;;;5.02;100.00
51081;BME280;37130;55.670;37.596;2023-10-08T04:40:56;96206.06;;;5.34;100.00
51081;BME280;37130;55.670;37.596;2023-10-08T04:43:29;96219.41;;;5.42;100.00
51081;BME280;37130;55.670;37.596;2023-10-08T04:45:58;96149.53;;;5.09;100.00
51081;BME280;37130;55.670;37.596;2023-10-08T04:48:26;96209.25;;;5.48;100.00
51081;BME280;37130;55.670;37.596;2023-10-08T04:50:59;96209.97;;;5.51;100.00
51081;BME280;37130;55.670;37.596;2023-10-08T04:53:32;96214.81;;;5.55;100.00
51081;BME280;37130;55.670;37.596;2023-10-08T04:56:07;96181.56;;;5.44;100.00
51081;BME280;37130;55.670;37.596;2023-10-08T04:58:41;96220.84;;;5.67;100.00
51081;BME280;37130;55.670;37.596;2023-10-08T05:01:08;96211.97;;;5.79;100.00
51081;BME280;37130;55.670;37.596;2023-10-08T05:03:51;96221.84;;;5.87;100.00
51081;BME280;37130;55.670;37.596;2023-10-08T05:06:35;96230.16;;;5.92;100.00
51081;BME280;37130;55.670;37.596;2023-10-08T05:09:12;96173.72;;;5.65;100.00
51081;BME280;37130;55.670;37.596;2023-10-08T05:12:18;96228.66;;;5.89;100.00
51081;BME280;37130;55.670;37.596;2023-10-08T05:15:05;96231.38;;;5.88;100.00
51081;BME280;37130;55.670;37.596;2023-10-08T05:17:45;96139.19;;;5.28;100.00
51081;BME280;37130;55.670;37.596;2023-10-08T05:20:20;96168.66;;;5.53;100.00
51081;BME280;37130;55.670;37.596;2023-10-08T05:23:08;96224.75;;;6.05;100.00
51081;BME280;37130;55.670;37.596;2023-10-08T05:26:00;96208.94;;;5.84;100.00
51081;BME280;37130;55.670;37.596;2023-10-08T05:28:36;96233.59;;;6.04;100.00
51081;BME280;37130;55.670;37.596;2023-10-08T05:31:14;96201.06;;;5.63;100.00
51081;BME280;37130;55.670;37.596;2023-10-08T05:33:42;96239.59;;;5.95;100.00
51081;BME280;37130;55.670;37.596;2023-10-08T05:36:28;96243.09;;;5.95;100.00
51081;BME280;37130;55.670;37.596;2023-10-08T05:39:17;96239.22;;;5.99;100.00
51081;BME280;37130;55.670;37.596;2023-10-08T05:42:03;96243.31;;;6.13;100.00
51081;BME280;37130;55.670;37.596;2023-10-08T05:44:58;96152.34;;;5.70;100.00
51081;BME280;37130;55.670;37.596;2023-10-08T05:47:35;96234.59;;;6.12;100.00
51081;BME280;37130;55.670;37.596;2023-10-08T05:50:03;96226.91;;;6.21;100.00
51081;BME280;37130;55.670;37.596;2023-10-08T05:52:44;96140.00;;;5.61;100.00
51081;BME280;37130;55.670;37.596;2023-10-08T05:55:25;96251.41;;;6.21;100.00
51081;BME280;37130;55.670;37.596;2023-10-08T05:58:02;96259.53;;;6.18;100.00
51081;BME280;37130;55.670;37.596;2023-10-08T06:01:02;96191.47;;;5.73;100.00
51081;BME280;37130;55.670;37.596;2023-10-08T06:03:35;96254.34;;;6.07;100.00
51081;BME280;37130;55.670;37.596;2023-10-08T06:06:07;96261.97;;;6.10;100.00
51081;BME280;37130;55.670;37.596;2023-10-08T06:08:43;96256.72;;;6.10;100.00
51081;BME280;37130;55.670;37.596;2023-10-08T06:11:38;96250.91;;;6.06;100.00
51081;BME280;37130;55.670;37.596;2023-10-08T06:14:08;96240.69;;;6.13;100.00
51081;BME280;37130;55.670;37.596;2023-10-08T06:16:55;96258.72;;;5.85;100.00
51081;BME280;37130;55.670;37.596;2023-10-08T06:19:50;96261.81;;;5.90;100.00
51081;BME280;37130;55.670;37.596;2023-10-08T06:22:19;96279.53;;;6.09;100.00
51081;BME280;37130;55.670;37.596;2023-10-08T06:24:53;96270.13;;;6.28;100.00
51081;BME280;37130;55.670;37.596;2023-10-08T06:27:41;96265.94;;;6.46;100.00
51081;BME280;37130;55.670;37.596;2023-10-08T06:30:08;96254.69;;;6.65;100.00
51081;BME280;37130;55.670;37.596;2023-10-08T06:32:44;96258.84;;;6.98;100.00
51081;BME280;37130;55.670;37.596;2023-10-08T06:35:12;96274.28;;;7.22;100.00
51081;BME280;37130;55.670;37.596;2023-10-08T06:37:45;96165.75;;;6.80;100.00
51081;BME280;37130;55.670;37.596;2023-10-08T06:40:16;96254.94;;;7.53;100.00
51081;BME280;37130;55.670;37.596;2023-10-08T06:43:05;96210.16;;;7.33;100.00
51081;BME280;37130;55.670;37.596;2023-10-08T06:45:43;96261.19;;;7.71;100.00
51081;BME280;37130;55.670;37.596;2023-10-08T06:48:11;96271.91;;;7.89;100.00
51081;BME280;37130;55.670;37.596;2023-10-08T06:50:47;96277.31;;;8.07;100.00
51081;BME280;37130;55.670;37.596;2023-10-08T06:53:16;96226.81;;;7.92;100.00
51081;BME280;37130;55.670;37.596;2023-10-08T06:55:45;96258.97;;;8.15;100.00
51081;BME280;37130;55.670;37.596;2023-10-08T06:58:15;96279.94;;;8.07;100.00
51081;BME280;37130;55.670;37.596;2023-10-08T07:00:45;96273.53;;;7.90;100.00
51081;BME280;37130;55.670;37.596;2023-10-08T07:03:16;96286.19;;;7.86;100.00
51081;BME280;37130;55.670;37.596;2023-10-08T07:05:48;96281.72;;;7.87;100.00
51081;BME280;37130;55.670;37.596;2023-10-08T07:08:28;96236.91;;;7.38;100.00
51081;BME280;37130;55.670;37.596;2023-10-08T07:11:01;96255.91;;;7.42;100.00
51081;BME280;37130;55.670;37.596;2023-10-08T07:13:34;96292.25;;;7.58;100.00
51081;BME280;37130;55.670;37.596;2023-10-08T07:16:03;96302.91;;;7.56;100.00
51081;BME280;37130;55.670;37.596;2023-10-08T07:18:31;96271.97;;;7.49;100.00
51081;BME280;37130;55.670;37.596;2023-10-08T07:21:02;96288.38;;;7.72;100.00
51081;BME280;37130;55.670;37.596;2023-10-08T07:23:39;96294.34;;;7.83;100.00
51081;BME280;37130;55.670;37.596;2023-10-08T07:26:29;96296.16;;;7.73;100.00
51081;BME280;37130;55.670;37.596;2023-10-08T07:29:07;96306.00;;;7.90;100.00
51081;BME280;37130;55.670;37.596;2023-10-08T07:31:39;96287.41;;;8.11;100.00
51081;BME280;37130;55.670;37.596;2023-10-08T07:34:10;96289.91;;;8.23;99.96
51081;BME280;37130;55.670;37.596;2023-10-08T07:36:47;96256.63;;;7.83;99.66
51081;BME280;37130;55.670;37.596;2023-10-08T07:39:15;96308.91;;;8.26;99.73
51081;BME280;37130;55.670;37.596;2023-10-08T07:41:53;96303.38;;;8.39;99.37
51081;BME280;37130;55.670;37.596;2023-10-08T07:44:25;96292.97;;;8.47;98.60
51081;BME280;37130;55.670;37.596;2023-10-08T07:47:00;96299.63;;;8.42;98.47
51081;BME280;37130;55.670;37.596;2023-10-08T07:49:27;96310.19;;;8.42;97.94
51081;BME280;37130;55.670;37.596;2023-10-08T07:51:58;96296.97;;;8.22;97.14
51081;BME280;37130;55.670;37.596;2023-10-08T07:54:28;96291.28;;;8.17;97.13
51081;BME280;37130;55.670;37.596;2023-10-08T07:56:56;96325.53;;;8.17;96.45
51081;BME280;37130;55.670;37.596;2023-10-08T07:59:41;96311.69;;;8.05;96.91
51081;BME280;37130;55.670;37.596;2023-10-08T08:02:09;96278.81;;;7.90;96.93
51081;BME280;37130;55.670;37.596;2023-10-08T08:04:41;96315.03;;;8.07;96.96
51081;BME280;37130;55.670;37.596;2023-10-08T08:07:21;96300.97;;;7.78;96.12
51081;BME280;37130;55.670;37.596;2023-10-08T08:09:51;96333.59;;;7.96;95.88
51081;BME280;37130;55.670;37.596;2023-10-08T08:12:21;96318.47;;;7.79;94.98
51081;BME280;37130;55.670;37.596;2023-10-08T08:14:52;96275.84;;;7.35;95.35
51081;BME280;37130;55.670;37.596;2023-10-08T08:17:23;96324.13;;;7.74;95.45
51081;BME280;37130;55.670;37.596;2023-10-08T08:19:52;96334.56;;;7.76;95.21
51081;BME280;37130;55.670;37.596;2023-10-08T08:22:21;96315.13;;;7.57;94.80
51081;BME280;37130;55.670;37.596;2023-10-08T08:24:51;96335.66;;;7.83;95.01
51081;BME280;37130;55.670;37.596;2023-10-08T08:27:43;96336.25;;;8.16;95.59
51081;BME280;37130;55.670;37.596;2023-10-08T08:30:16;96333.91;;;8.42;94.62
51081;BME280;37130;55.670;37.596;2023-10-08T08:32:46;96329.69;;;8.68;93.82
51081;BME280;37130;55.670;37.596;2023-10-08T08:35:20;96337.16;;;8.83;92.86
51081;BME280;37130;55.670;37.596;2023-10-08T08:37:47;96302.63;;;8.66;91.69
51081;BME280;37130;55.670;37.596;2023-10-08T08:40:20;96332.69;;;8.93;90.68
51081;BME280;37130;55.670;37.596;2023-10-08T08:42:52;96338.25;;;8.90;90.35
51081;BME280;37130;55.670;37.596;2023-10-08T08:45:23;96336.41;;;9.00;90.17
51081;BME280;37130;55.670;37.596;2023-10-08T08:47:55;96326.25;;;9.15;89.74
51081;BME280;37130;55.670;37.596;2023-10-08T08:50:23;96347.72;;;9.57;89.65
51081;BME280;37130;55.670;37.596;2023-10-08T08:52:50;96357.94;;;9.42;87.57
51081;BME280;37130;55.670;37.596;2023-10-08T08:55:19;96348.81;;;9.27;87.09
51081;BME280;37130;55.670;37.596;2023-10-08T08:57:49;96358.56;;;9.27;86.58
51081;BME280;37130;55.670;37.596;2023-10-08T09:00:19;96342.28;;;9.31;86.17
51081;BME280;37130;55.670;37.596;2023-10-08T09:02:48;96348.34;;;9.41;85.35
51081;BME280;37130;55.670;37.596;2023-10-08T09:05:17;96350.97;;;9.51;85.00
51081;BME280;37130;55.670;37.596;2023-10-08T09:08:02;96355.75;;;9.65;85.08
51081;BME280;37130;55.670;37.596;2023-10-08T09:10:36;96355.50;;;9.59;83.27
51081;BME280;37130;55.670;37.596;2023-10-08T09:13:06;96362.03;;;9.27;82.66
51081;BME280;37130;55.670;37.596;2023-10-08T09:15:38;96269.47;;;8.54;83.31
51081;BME280;37130;55.670;37.596;2023-10-08T09:18:06;96361.41;;;9.06;81.68
51081;BME280;37130;55.670;37.596;2023-10-08T09:20:37;96365.75;;;8.97;81.68
51081;BME280;37130;55.670;37.596;2023-10-08T09:23:13;96374.81;;;9.22;81.43
51081;BME280;37130;55.670;37.596;2023-10-08T09:25:42;96324.84;;;9.11;80.67
51081;BME280;37130;55.670;37.596;2023-10-08T09:28:10;96372.34;;;9.48;79.28
51081;BME280;37130;55.670;37.596;2023-10-08T09:30:41;96367.06;;;9.48;79.01
51081;BME280;37130;55.670;37.596;2023-10-08T09:33:10;96275.72;;;8.53;78.22
51081;BME280;37130;55.670;37.596;2023-10-08T09:35:39;96378.66;;;8.90;79.13
51081;BME280;37130;55.670;37.596;2023-10-08T09:38:07;96377.41;;;9.04;78.47
51081;BME280;37130;55.670;37.596;2023-10-08T09:40:40;96377.66;;;9.01;78.77
51081;BME280;37130;55.670;37.596;2023-10-08T09:43:10;96338.13;;;8.91;78.64
51081;BME280;37130;55.670;37.596;2023-10-08T09:45:43;96377.59;;;9.30;77.13
51081;BME280;37130;55.670;37.596;2023-10-08T09:48:16;96341.00;;;8.98;76.54
51081;BME280;37130;55.670;37.596;2023-10-08T09:50:47;96382.00;;;8.92;75.90
51081;BME280;37130;55.670;37.596;2023-10-08T09:53:15;96381.75;;;8.56;76.04
51081;BME280;37130;55.670;37.596;2023-10-08T09:58:28;96394.66;;;8.21;76.29
51081;BME280;37130;55.670;37.596;2023-10-08T10:00:56;96364.25;;;8.17;75.28
51081;BME280;37130;55.670;37.596;2023-10-08T10:03:26;96409.69;;;8.49;74.52
51081;BME280;37130;55.670;37.596;2023-10-08T10:05:55;96408.69;;;8.41;73.85
51081;BME280;37130;55.670;37.596;2023-10-08T10:08:28;96412.41;;;8.19;73.59
51081;BME280;37130;55.670;37.596;2023-10-08T10:11:03;96323.25;;;7.54;73.99
51081;BME280;37130;55.670;37.596;2023-10-08T10:13:39;96406.97;;;8.01;73.65
51081;BME280;37130;55.670;37.596;2023-10-08T10:16:10;96399.75;;;8.03;74.27
51081;BME280;37130;55.670;37.596;2023-10-08T10:18:44;96421.13;;;8.09;72.80
51081;BME280;37130;55.670;37.596;2023-10-08T10:21:43;96399.78;;;8.12;73.49
51081;BME280;37130;55.670;37.596;2023-10-08T10:24:32;96406.34;;;8.47;72.56
51081;BME280;37130;55.670;37.596;2023-10-08T10:27:12;96402.31;;;8.72;71.08
51081;BME280;37130;55.670;37.596;2023-10-08T10:29:42;96362.75;;;8.63;70.61
51081;BME280;37130;55.670;37.596;2023-10-08T10:32:12;96413.84;;;8.91;69.65
51081;BME280;37130;55.670;37.596;2023-10-08T10:34:43;96423.56;;;8.71;69.69
51081;BME280;37130;55.670;37.596;2023-10-08T10:37:11;96422.72;;;8.51;71.38
51081;BME280;37130;55.670;37.596;2023-10-08T10:39:56;96357.44;;;7.95;71.95
51081;BME280;37130;55.670;37.596;2023-10-08T10:42:30;96421.00;;;8.11;71.92
51081;BME280;37130;55.670;37.596;2023-10-08T10:45:14;96317.78;;;7.27;72.11
51081;BME280;37130;55.670;37.596;2023-10-08T10:48:03;96428.28;;;7.88;72.35
51081;BME280;37130;55.670;37.596;2023-10-08T10:50:50;96426.25;;;8.01;72.48
51081;BME280;37130;55.670;37.596;2023-10-08T10:53:37;96428.63;;;8.04;72.12
51081;BME280;37130;55.670;37.596;2023-10-08T10:56:37;96387.44;;;7.53;73.81
51081;BME280;37130;55.670;37.596;2023-10-08T10:59:10;96447.59;;;7.98;74.75
51081;BME280;37130;55.670;37.596;2023-10-08T11:01:49;96421.38;;;7.87;73.44
51081;BME280;37130;55.670;37.596;2023-10-08T11:04:20;96446.56;;;7.80;74.03
51081;BME280;37130;55.670;37.596;2023-10-08T11:06:51;96437.09;;;7.67;73.57
51081;BME280;37130;55.670;37.596;2023-10-08T11:09:27;96447.13;;;7.43;73.14
51081;BME280;37130;55.670;37.596;2023-10-08T11:12:08;96428.94;;;6.88;73.86
51081;BME280;37130;55.670;37.596;2023-10-08T11:14:42;96448.91;;;6.91;74.81
51081;BME280;37130;55.670;37.596;2023-10-08T11:17:14;96465.91;;;6.87;75.04
51081;BME280;37130;55.670;37.596;2023-10-08T11:19:45;96451.25;;;6.73;75.14
51081;BME280;37130;55.670;37.596;2023-10-08T11:22:15;96445.47;;;6.58;75.36
51081;BME280;37130;55.670;37.596;2023-10-08T11:24:44;96457.97;;;6.45;75.25
51081;BME280;37130;55.670;37.596;2023-10-08T11:27:17;96415.34;;;5.98;75.61
51081;BME280;37130;55.670;37.596;2023-10-08T11:29:57;96451.56;;;6.26;76.11
51081;BME280;37130;55.670;37.596;2023-10-08T11:32:26;96448.56;;;6.31;75.90
51081;BME280;37130;55.670;37.596;2023-10-08T11:34:58;96414.13;;;5.90;76.26
51081;BME280;37130;55.670;37.596;2023-10-08T11:37:46;96449.09;;;6.13;76.63
51081;BME280;37130;55.670;37.596;2023-10-08T11:40:22;96457.72;;;5.82;78.74
51081;BME280;37130;55.670;37.596;2023-10-08T11:42:57;96446.38;;;5.81;78.67
51081;BME280;37130;55.670;37.596;2023-10-08T11:45:26;96451.28;;;5.75;78.28
51081;BME280;37130;55.670;37.596;2023-10-08T11:47:55;96443.28;;;5.65;78.81
51081;BME280;37130;55.670;37.596;2023-10-08T11:50:30;96432.31;;;5.48;78.92
51081;BME280;37130;55.670;37.596;2023-10-08T11:53:00;96444.03;;;5.56;78.27
51081;BME280;37130;55.670;37.596;2023-10-08T11:55:32;96404.53;;;5.23;79.19
51081;BME280;37130;55.670;37.596;2023-10-08T11:58:09;96457.38;;;5.64;78.74
51081;BME280;37130;55.670;37.596;2023-10-08T12:00:41;96392.94;;;5.26;79.10
51081;BME280;37130;55.670;37.596;2023-10-08T12:03:14;96449.25;;;5.33;80.09
51081;BME280;37130;55.670;37.596;2023-10-08T12:05:48;96444.13;;;5.43;80.07
51081;BME280;37130;55.670;37.596;2023-10-08T12:08:19;96444.72;;;5.35;79.70
51081;BME280;37130;55.670;37.596;2023-10-08T12:10:50;96445.31;;;5.39;79.96
51081;BME280;37130;55.670;37.596;2023-10-08T12:13:22;96448.66;;;5.41;79.30
51081;BME280;37130;55.670;37.596;2023-10-08T12:15:56;96425.41;;;5.25;80.06
51081;BME280;37130;55.670;37.596;2023-10-08T12:18:34;96453.91;;;5.41;80.08
51081;BME280;37130;55.670;37.596;2023-10-08T12:21:08;96455.22;;;5.35;80.26
51081;BME280;37130;55.670;37.596;2023-10-08T12:23:39;96464.28;;;5.31;80.36
51081;BME280;37130;55.670;37.596;2023-10-08T12:26:08;96366.47;;;4.84;80.15
51081;BME280;37130;55.670;37.596;2023-10-08T12:28:36;96460.00;;;5.41;79.86
51081;BME280;37130;55.670;37.596;2023-10-08T12:31:03;96456.53;;;5.41;79.88
51081;BME280;37130;55.670;37.596;2023-10-08T12:33:31;96452.00;;;5.54;82.63
51081;BME280;37130;55.670;37.596;2023-10-08T12:35:59;96397.25;;;5.49;81.12
51081;BME280;37130;55.670;37.596;2023-10-08T12:38:40;96448.06;;;5.82;80.10
51081;BME280;37130;55.670;37.596;2023-10-08T12:41:11;96447.34;;;5.80;80.46
51081;BME280;37130;55.670;37.596;2023-10-08T12:43:45;96437.53;;;5.71;80.07
51081;BME280;37130;55.670;37.596;2023-10-08T12:46:13;96395.59;;;5.37;80.21
51081;BME280;37130;55.670;37.596;2023-10-08T12:48:53;96448.06;;;5.60;80.38
51081;BME280;37130;55.670;37.596;2023-10-08T12:51:24;96391.88;;;5.17;80.24
51081;BME280;37130;55.670;37.596;2023-10-08T12:53:54;96431.13;;;5.53;80.58
51081;BME280;37130;55.670;37.596;2023-10-08T12:56:47;96442.56;;;5.63;81.38
51081;BME280;37130;55.670;37.596;2023-10-08T12:59:16;96450.44;;;5.63;80.60
51081;BME280;37130;55.670;37.596;2023-10-08T13:01:52;96447.59;;;5.43;80.78
51081;BME280;37130;55.670;37.596;2023-10-08T13:04:23;96452.72;;;5.34;80.99
51081;BME280;37130;55.670;37.596;2023-10-08T13:06:58;96453.78;;;5.31;81.41
51081;BME280;37130;55.670;37.596;2023-10-08T13:09:30;96467.63;;;5.22;81.09
51081;BME280;37130;55.670;37.596;2023-10-08T13:12:04;96395.97;;;4.64;80.70
51081;BME280;37130;55.670;37.596;2023-10-08T13:14:32;96450.13;;;4.87;80.97
51081;BME280;37130;55.670;37.596;2023-10-08T13:17:03;96456.09;;;4.78;81.58
51081;BME280;37130;55.670;37.596;2023-10-08T13:19:30;96455.75;;;4.82;82.07
51081;BME280;37130;55.670;37.596;2023-10-08T13:22:02;96462.88;;;4.80;81.21
51081;BME280;37130;55.670;37.596;2023-10-08T13:24:34;96453.19;;;4.70;82.20
51081;BME280;37130;55.670;37.596;2023-10-08T13:27:03;96448.41;;;4.64;81.99
51081;BME280;37130;55.670;37.596;2023-10-08T13:29:34;96449.31;;;4.51;81.87
51081;BME280;37130;55.670;37.596;2023-10-08T13:32:02;96457.84;;;4.42;82.46